createdAt,value
2019-03-29T00:00:49.747Z,6.60
2019-03-29T00:03:19.821Z,6.60
2019-03-29T00:05:49.841Z,6.60
2019-03-29T00:08:19.875Z,6.60
2019-03-29T00:10:49.840Z,6.60
2019-03-29T00:13:19.838Z,6.60
2019-03-29T00:15:49.880Z,6.60
2019-03-29T00:18:19.860Z,6.60
2019-03-29T00:20:49.835Z,6.60
2019-03-29T00:23:19.880Z,6.60
2019-03-29T00:25:49.867Z,6.60
2019-03-29T00:28:19.831Z,6.60
2019-03-29T00:30:49.843Z,6.60
2019-03-29T00:33:19.817Z,6.70
2019-03-29T00:35:49.783Z,6.70
2019-03-29T00:38:20.998Z,6.70
2019-03-29T00:40:50.984Z,6.70
2019-03-29T00:43:20.978Z,6.60
2019-03-29T00:45:51.114Z,6.60
2019-03-29T00:48:21.225Z,6.60
2019-03-29T00:50:51.969Z,6.60
2019-03-29T00:53:22.039Z,6.60
2019-03-29T00:55:52.023Z,6.60
2019-03-29T00:58:22.851Z,6.60
2019-03-29T01:00:53.251Z,6.60
2019-03-29T01:03:23.279Z,6.60
2019-03-29T01:05:53.307Z,6.60
2019-03-29T01:08:23.316Z,6.50
2019-03-29T01:10:53.337Z,6.50
2019-03-29T01:13:23.307Z,6.50
2019-03-29T01:15:53.528Z,6.50
2019-03-29T01:18:23.523Z,6.50
2019-03-29T01:20:53.535Z,6.50
2019-03-29T01:23:24.089Z,6.40
2019-03-29T01:25:54.547Z,6.40
2019-03-29T01:28:25.440Z,6.40
2019-03-29T01:30:55.431Z,6.40
2019-03-29T01:33:25.405Z,6.40
2019-03-29T01:35:55.440Z,6.40
2019-03-29T01:38:25.423Z,6.50
2019-03-29T01:40:55.411Z,6.50
2019-03-29T01:43:25.399Z,6.50
2019-03-29T01:45:55.370Z,6.50
2019-03-29T01:48:25.373Z,6.50
2019-03-29T01:50:55.386Z,6.50
2019-03-29T01:53:25.383Z,6.50
2019-03-29T01:55:55.425Z,6.50
2019-03-29T01:58:25.447Z,6.50
2019-03-29T02:00:55.427Z,6.50
2019-03-29T02:03:25.438Z,6.50
2019-03-29T02:05:55.497Z,6.50
2019-03-29T02:08:35.720Z,6.50
2019-03-29T02:10:57.214Z,6.40
2019-03-29T02:13:27.251Z,6.40
2019-03-29T02:15:57.263Z,6.40
2019-03-29T02:18:27.276Z,6.40
2019-03-29T02:20:57.302Z,6.40
2019-03-29T02:23:27.351Z,6.40
2019-03-29T02:25:57.338Z,6.40
2019-03-29T02:28:27.458Z,6.40
2019-03-29T02:30:57.364Z,6.40
2019-03-29T02:33:28.447Z,6.30
2019-03-29T02:35:58.459Z,6.30
2019-03-29T02:38:28.450Z,6.30
2019-03-29T02:40:58.497Z,6.30
2019-03-29T02:43:28.512Z,6.30
2019-03-29T02:45:58.518Z,6.30
2019-03-29T02:48:28.629Z,6.30
2019-03-29T02:50:58.627Z,6.30
2019-03-29T02:53:28.649Z,6.20
2019-03-29T02:55:58.672Z,6.20
2019-03-29T02:58:28.735Z,6.20
2019-03-29T03:00:58.748Z,6.10
2019-03-29T03:03:28.752Z,6.10
2019-03-29T03:05:58.783Z,6.00
2019-03-29T03:08:32.623Z,6.00
2019-03-29T03:11:00.392Z,5.90
2019-03-29T03:13:30.794Z,5.90
2019-03-29T03:16:00.749Z,5.90
2019-03-29T03:18:31.061Z,5.90
2019-03-29T03:21:01.097Z,5.90
2019-03-29T03:23:31.088Z,5.90
2019-03-29T03:26:01.104Z,5.80
2019-03-29T03:28:31.115Z,5.80
2019-03-29T03:31:01.180Z,5.80
2019-03-29T03:33:32.025Z,5.80
2019-03-29T03:36:02.089Z,5.70
2019-03-29T03:38:32.053Z,5.70
2019-03-29T03:41:02.047Z,5.70
2019-03-29T03:43:32.027Z,5.70
2019-03-29T03:46:02.044Z,5.70
2019-03-29T03:48:32.035Z,5.60
2019-03-29T03:51:02.044Z,5.60
2019-03-29T03:53:32.183Z,5.60
2019-03-29T03:56:03.752Z,5.60
2019-03-29T03:58:34.371Z,5.60
2019-03-29T04:01:04.528Z,5.50
2019-03-29T04:03:34.597Z,5.50
2019-03-29T04:06:04.642Z,5.50
2019-03-29T04:08:34.609Z,5.50
2019-03-29T04:11:04.683Z,5.40
2019-03-29T04:13:34.773Z,5.40
2019-03-29T04:16:04.677Z,5.30
2019-03-29T04:18:34.659Z,5.30
2019-03-29T04:21:04.701Z,5.30
2019-03-29T04:23:34.656Z,5.30
2019-03-29T04:26:04.655Z,5.20
2019-03-29T04:28:34.732Z,5.20
2019-03-29T04:31:04.712Z,5.20
2019-03-29T04:33:34.934Z,5.10
2019-03-29T04:36:04.948Z,5.10
2019-03-29T04:38:34.929Z,5.20
2019-03-29T04:41:05.312Z,5.10
2019-03-29T04:43:35.295Z,5.10
2019-03-29T04:46:05.284Z,5.20
2019-03-29T04:48:35.277Z,5.20
2019-03-29T04:51:05.320Z,5.20
2019-03-29T04:53:35.288Z,5.20
2019-03-29T04:56:05.267Z,5.10
2019-03-29T04:58:35.286Z,5.10
2019-03-29T05:01:05.267Z,5.10
2019-03-29T05:03:35.264Z,5.20
2019-03-29T05:06:05.285Z,5.20
2019-03-29T05:08:35.279Z,5.20
2019-03-29T05:11:05.279Z,5.20
2019-03-29T05:13:35.311Z,5.20
2019-03-29T05:16:05.308Z,5.20
2019-03-29T05:18:35.303Z,5.20
2019-03-29T05:21:05.323Z,5.30
2019-03-29T05:23:35.283Z,5.30
2019-03-29T05:26:05.294Z,5.30
2019-03-29T05:28:35.312Z,5.30
2019-03-29T05:31:05.317Z,5.30
2019-03-29T05:33:35.327Z,5.30
2019-03-29T05:36:05.427Z,5.30
2019-03-29T05:38:35.356Z,5.30
2019-03-29T05:41:05.307Z,5.30
2019-03-29T05:43:35.303Z,5.30
2019-03-29T05:46:05.391Z,5.30
2019-03-29T05:48:35.367Z,5.30
2019-03-29T05:51:05.501Z,5.30
2019-03-29T05:53:35.495Z,5.30
2019-03-29T05:56:05.498Z,5.30
2019-03-29T05:58:35.487Z,5.40
2019-03-29T06:01:05.468Z,5.40
2019-03-29T06:03:35.454Z,5.40
2019-03-29T06:06:05.476Z,5.50
2019-03-29T06:08:35.468Z,5.50
2019-03-29T06:11:05.467Z,5.60
2019-03-29T06:13:35.532Z,5.60
2019-03-29T06:16:06.244Z,5.70
2019-03-29T06:18:36.678Z,5.80
2019-03-29T06:21:06.647Z,5.80
2019-03-29T06:23:36.648Z,5.90
2019-03-29T06:26:06.655Z,6.00
2019-03-29T06:28:36.668Z,6.10
2019-03-29T06:31:06.724Z,6.10
2019-03-29T06:33:36.707Z,6.20
2019-03-29T06:36:09.591Z,6.30
2019-03-29T06:38:41.309Z,6.30
2019-03-29T06:41:11.291Z,6.40
2019-03-29T06:43:41.343Z,6.50
2019-03-29T06:46:11.332Z,6.50
2019-03-29T06:48:41.361Z,6.60
2019-03-29T06:51:11.374Z,6.70
2019-03-29T06:53:41.367Z,6.70
2019-03-29T06:56:11.359Z,6.80
2019-03-29T06:58:41.388Z,6.80
2019-03-29T07:01:11.350Z,6.90
2019-03-29T07:03:41.415Z,7.00
2019-03-29T07:06:11.472Z,7.00
2019-03-29T07:08:41.503Z,7.10
2019-03-29T07:11:17.736Z,7.20
2019-03-29T07:13:56.231Z,7.20
2019-03-29T07:16:15.084Z,7.30
2019-03-29T07:18:45.072Z,7.40
2019-03-29T07:21:21.314Z,7.40
2019-03-29T07:23:46.719Z,7.50
2019-03-29T07:26:16.730Z,7.50
2019-03-29T07:28:46.743Z,7.60
2019-03-29T07:31:16.711Z,7.60
2019-03-29T07:33:46.728Z,7.70
2019-03-29T07:36:16.755Z,7.80
2019-03-29T07:38:46.776Z,7.80
2019-03-29T07:41:30.685Z,7.90
2019-03-29T07:43:48.451Z,7.90
2019-03-29T07:46:18.428Z,8.00
2019-03-29T07:48:48.437Z,8.10
2019-03-29T07:51:18.507Z,8.20
2019-03-29T07:53:48.491Z,8.20
2019-03-29T07:56:18.507Z,8.30
2019-03-29T07:58:48.579Z,8.40
2019-03-29T08:01:18.596Z,8.40
2019-03-29T08:03:51.189Z,8.50
2019-03-29T08:06:21.161Z,8.50
2019-03-29T08:08:51.155Z,8.70
2019-03-29T08:11:26.256Z,8.70
2019-03-29T08:13:52.842Z,8.80
2019-03-29T08:16:22.819Z,8.90
2019-03-29T08:18:52.827Z,9.00
2019-03-29T08:21:22.898Z,9.10
2019-03-29T08:23:52.904Z,9.10
2019-03-29T08:26:22.885Z,9.30
2019-03-29T08:28:52.876Z,9.40
2019-03-29T08:31:22.900Z,9.40
2019-03-29T08:33:53.159Z,9.50
2019-03-29T08:36:23.203Z,9.50
2019-03-29T08:38:53.175Z,9.60
2019-03-29T08:41:23.178Z,9.70
2019-03-29T08:43:53.178Z,9.80
2019-03-29T08:46:23.151Z,9.90
2019-03-29T08:48:53.584Z,10.00
2019-03-29T08:51:23.638Z,10.00
2019-03-29T08:53:53.653Z,10.10
2019-03-29T08:56:23.634Z,10.10
2019-03-29T08:58:53.665Z,10.20
2019-03-29T09:01:23.635Z,10.30
2019-03-29T09:04:04.753Z,10.40
2019-03-29T09:06:25.936Z,10.40
2019-03-29T09:08:56.983Z,10.50
2019-03-29T09:11:26.956Z,10.60
2019-03-29T09:13:56.992Z,10.60
2019-03-29T09:16:26.977Z,10.70
2019-03-29T09:18:56.995Z,10.80
2019-03-29T09:21:27.038Z,10.90
2019-03-29T09:23:57.027Z,11.00
2019-03-29T09:26:26.997Z,11.00
2019-03-29T09:28:57.027Z,11.10
2019-03-29T09:31:27.062Z,11.20
2019-03-29T09:33:58.786Z,11.30
2019-03-29T09:36:29.055Z,11.30
2019-03-29T09:38:59.055Z,11.40
2019-03-29T09:41:29.512Z,11.50
2019-03-29T09:43:59.570Z,11.60
2019-03-29T09:46:29.591Z,11.60
2019-03-29T09:48:59.691Z,11.70
2019-03-29T09:51:29.724Z,11.80
2019-03-29T09:53:59.708Z,11.80
2019-03-29T09:56:38.560Z,11.90
2019-03-29T09:59:01.376Z,12.00
2019-03-29T10:01:31.504Z,12.00
2019-03-29T10:04:01.679Z,12.00
2019-03-29T10:06:31.721Z,12.10
2019-03-29T10:09:02.576Z,12.10
2019-03-29T10:11:32.572Z,12.10
2019-03-29T10:14:02.555Z,12.10
2019-03-29T10:16:32.566Z,12.20
2019-03-29T10:19:02.638Z,12.30
2019-03-29T10:21:34.279Z,12.30
2019-03-29T10:24:04.423Z,12.30
2019-03-29T10:26:34.403Z,12.30
2019-03-29T10:29:05.273Z,12.40
2019-03-29T10:31:35.259Z,12.40
2019-03-29T10:34:06.945Z,12.40
2019-03-29T10:36:37.013Z,12.40
2019-03-29T10:39:12.679Z,12.50
2019-03-29T10:41:43.212Z,12.50
2019-03-29T10:44:13.240Z,12.50
2019-03-29T10:46:43.259Z,12.50
2019-03-29T10:49:13.280Z,12.50
2019-03-29T10:51:43.292Z,12.50
2019-03-29T10:54:13.276Z,12.50
2019-03-29T10:56:43.362Z,12.60
2019-03-29T10:59:26.763Z,12.70
2019-03-29T11:01:45.023Z,13.00
2019-03-29T11:04:15.082Z,13.20
2019-03-29T11:06:45.073Z,13.20
2019-03-29T11:09:15.199Z,13.20
2019-03-29T11:11:45.336Z,13.30
2019-03-29T11:14:15.254Z,13.30
2019-03-29T11:16:45.237Z,13.40
2019-03-29T11:19:15.308Z,13.40
2019-03-29T11:21:45.436Z,13.40
2019-03-29T11:24:15.445Z,13.30
2019-03-29T11:26:45.463Z,13.30
2019-03-29T11:29:15.504Z,13.30
2019-03-29T11:31:45.608Z,13.30
2019-03-29T11:34:15.587Z,13.40
2019-03-29T11:36:45.652Z,13.50
2019-03-29T11:39:15.740Z,13.50
2019-03-29T11:41:45.787Z,13.50
2019-03-29T11:44:15.793Z,13.60
2019-03-29T11:46:45.829Z,13.60
2019-03-29T11:49:34.625Z,13.70
2019-03-29T11:52:04.648Z,13.70
2019-03-29T11:54:34.646Z,13.70
2019-03-29T11:57:04.704Z,13.70
2019-03-29T11:59:34.701Z,13.60
2019-03-29T12:02:04.756Z,13.60
2019-03-29T12:04:34.792Z,13.50
2019-03-29T12:07:04.790Z,13.50
2019-03-29T12:09:34.786Z,13.60
2019-03-29T12:12:04.835Z,13.60
2019-03-29T12:14:34.937Z,13.70
2019-03-29T12:17:04.908Z,13.70
2019-03-29T12:19:35.047Z,13.60
2019-03-29T12:22:05.068Z,13.60
2019-03-29T12:24:35.043Z,13.60
2019-03-29T12:27:05.091Z,13.70
2019-03-29T12:29:35.111Z,13.80
2019-03-29T12:32:05.115Z,13.80
2019-03-29T12:34:35.147Z,13.90
2019-03-29T12:37:05.143Z,13.90
2019-03-29T12:39:35.156Z,13.90
2019-03-29T12:42:05.185Z,13.70
2019-03-29T12:44:35.185Z,13.70
2019-03-29T12:47:05.227Z,13.60
2019-03-29T12:49:35.253Z,13.50
2019-03-29T12:52:05.263Z,13.50
2019-03-29T12:54:35.252Z,13.60
2019-03-29T12:57:06.818Z,13.60
2019-03-29T12:59:37.021Z,13.70
2019-03-29T13:02:07.095Z,13.70
2019-03-29T13:04:37.235Z,13.60
2019-03-29T13:07:07.303Z,13.60
2019-03-29T13:09:39.760Z,13.60
2019-03-29T13:12:09.007Z,13.60
2019-03-29T13:14:39.018Z,13.60
2019-03-29T13:17:09.059Z,13.60
2019-03-29T13:19:39.091Z,13.70
2019-03-29T13:22:10.429Z,13.70
2019-03-29T13:24:40.575Z,13.70
2019-03-29T13:27:10.610Z,13.60
2019-03-29T13:29:40.656Z,13.60
2019-03-29T13:32:10.639Z,13.60
2019-03-29T13:34:40.677Z,13.50
2019-03-29T13:37:10.675Z,13.50
2019-03-29T13:39:43.367Z,13.60
2019-03-29T13:42:13.379Z,13.60
2019-03-29T13:44:43.537Z,13.60
2019-03-29T13:47:13.519Z,13.50
2019-03-29T13:49:43.648Z,13.50
2019-03-29T13:52:13.791Z,13.50
2019-03-29T13:54:44.020Z,13.50
2019-03-29T13:57:14.060Z,13.60
2019-03-29T13:59:45.540Z,13.70
2019-03-29T14:02:15.612Z,13.70
2019-03-29T14:04:45.843Z,13.80
2019-03-29T14:07:15.812Z,13.80
2019-03-29T14:09:45.903Z,13.80
2019-03-29T14:12:16.029Z,13.80
2019-03-29T14:14:46.066Z,13.80
2019-03-29T14:17:15.999Z,13.80
2019-03-29T14:19:46.121Z,13.80
2019-03-29T14:22:16.031Z,13.80
2019-03-29T14:24:46.024Z,13.80
2019-03-29T14:27:16.103Z,13.90
2019-03-29T14:29:46.164Z,13.90
2019-03-29T14:32:16.325Z,13.90
2019-03-29T14:34:46.389Z,13.90
2019-03-29T14:37:16.315Z,13.90
2019-03-29T14:39:46.404Z,13.80
2019-03-29T14:42:19.380Z,13.80
2019-03-29T14:44:52.682Z,13.90
2019-03-29T14:47:21.155Z,13.90
2019-03-29T14:49:51.260Z,13.90
2019-03-29T14:52:21.258Z,13.90
2019-03-29T14:54:53.735Z,13.90
2019-03-29T14:57:23.803Z,13.90
2019-03-29T14:59:53.808Z,13.90
2019-03-29T15:02:23.995Z,13.90
2019-03-29T15:04:54.039Z,13.90
2019-03-29T15:07:24.038Z,13.80
2019-03-29T15:09:54.126Z,13.80
2019-03-29T15:12:24.130Z,13.80
2019-03-29T15:15:05.902Z,13.70
2019-03-29T15:17:27.599Z,13.70
2019-03-29T15:19:57.586Z,13.60
2019-03-29T15:22:27.636Z,13.60
2019-03-29T15:24:57.664Z,13.60
2019-03-29T15:27:27.639Z,13.50
2019-03-29T15:29:57.681Z,13.50
2019-03-29T15:32:27.752Z,13.50
2019-03-29T15:34:57.764Z,13.50
2019-03-29T15:37:27.750Z,13.50
2019-03-29T15:39:57.807Z,13.50
2019-03-29T15:42:28.155Z,13.50
2019-03-29T15:44:58.248Z,13.50
2019-03-29T15:47:28.258Z,13.50
2019-03-29T15:50:02.085Z,13.40
2019-03-29T15:52:32.189Z,13.20
2019-03-29T15:55:02.355Z,13.10
2019-03-29T15:57:32.382Z,13.00
2019-03-29T16:00:02.503Z,12.90
2019-03-29T16:02:32.487Z,12.80
2019-03-29T16:05:02.589Z,12.70
2019-03-29T16:07:34.982Z,12.60
2019-03-29T16:10:04.280Z,12.50
2019-03-29T16:12:34.260Z,12.50
2019-03-29T16:15:04.409Z,12.30
2019-03-29T16:17:34.444Z,12.30
2019-03-29T16:20:04.512Z,12.20
2019-03-29T16:22:34.696Z,12.10
2019-03-29T16:25:04.954Z,12.00
2019-03-29T16:27:34.976Z,11.90
2019-03-29T16:30:06.491Z,11.90
2019-03-29T16:32:36.583Z,11.80
2019-03-29T16:35:07.248Z,11.70
2019-03-29T16:37:37.436Z,11.60
2019-03-29T16:40:08.394Z,11.50
2019-03-29T16:42:38.617Z,11.50
2019-03-29T16:45:11.315Z,11.40
2019-03-29T16:47:41.555Z,11.40
2019-03-29T16:50:12.096Z,11.30
2019-03-29T16:52:42.189Z,11.30
2019-03-29T16:55:14.304Z,11.20
2019-03-29T16:57:44.694Z,11.20
2019-03-29T17:00:15.113Z,11.00
2019-03-29T17:02:45.113Z,11.00
2019-03-29T17:05:15.186Z,10.90
2019-03-29T17:07:48.163Z,10.90
2019-03-29T17:10:18.139Z,10.80
2019-03-29T17:12:48.144Z,10.70
2019-03-29T17:15:18.255Z,10.60
2019-03-29T17:17:48.285Z,10.50
2019-03-29T17:20:18.338Z,10.50
2019-03-29T17:22:48.405Z,10.40
2019-03-29T17:25:18.411Z,10.30
2019-03-29T17:27:48.427Z,10.20
2019-03-29T17:30:23.149Z,10.10
2019-03-29T17:32:53.760Z,10.00
2019-03-29T17:35:23.733Z,9.90
2019-03-29T17:37:53.755Z,9.90
2019-03-29T17:40:23.742Z,9.80
2019-03-29T17:42:53.737Z,9.70
2019-03-29T17:45:23.849Z,9.60
2019-03-29T17:47:53.853Z,9.60
2019-03-29T17:50:25.364Z,9.50
2019-03-29T17:52:55.543Z,9.40
2019-03-29T17:55:25.523Z,9.40
2019-03-29T17:57:55.500Z,9.40
2019-03-29T18:00:25.935Z,9.30
2019-03-29T18:02:55.955Z,9.30
2019-03-29T18:05:26.011Z,9.30
2019-03-29T18:07:56.219Z,9.20
2019-03-29T18:10:26.251Z,9.20
2019-03-29T18:12:56.355Z,9.20
2019-03-29T18:15:26.359Z,9.10
2019-03-29T18:17:56.385Z,9.10
2019-03-29T18:20:26.411Z,9.10
2019-03-29T18:22:56.603Z,9.10
2019-03-29T18:25:26.655Z,9.00
2019-03-29T18:27:56.686Z,9.00
2019-03-29T18:30:38.060Z,9.00
2019-03-29T18:33:08.344Z,8.90
2019-03-29T18:35:38.640Z,8.90
2019-03-29T18:38:08.759Z,8.90
2019-03-29T18:40:38.748Z,8.90
2019-03-29T18:43:08.772Z,8.80
2019-03-29T18:45:41.465Z,8.80
2019-03-29T18:48:10.588Z,8.80
2019-03-29T18:50:42.225Z,8.80
2019-03-29T18:53:12.295Z,8.70
2019-03-29T18:55:42.304Z,8.70
2019-03-29T18:58:12.340Z,8.70
2019-03-29T19:00:42.323Z,8.60
2019-03-29T19:03:12.488Z,8.60
2019-03-29T19:05:43.456Z,8.60
2019-03-29T19:08:13.617Z,8.50
2019-03-29T19:10:43.551Z,8.50
2019-03-29T19:13:13.600Z,8.50
2019-03-29T19:15:43.649Z,8.50
2019-03-29T19:18:13.676Z,8.40
2019-03-29T19:20:43.631Z,8.40
2019-03-29T19:23:13.632Z,8.40
2019-03-29T19:25:43.607Z,8.40
2019-03-29T19:28:13.729Z,8.30
2019-03-29T19:30:43.838Z,8.30
2019-03-29T19:33:13.831Z,8.30
2019-03-29T19:35:43.960Z,8.30
2019-03-29T19:38:13.959Z,8.30
2019-03-29T19:40:43.945Z,8.20
2019-03-29T19:43:13.986Z,8.20
2019-03-29T19:45:43.963Z,8.20
2019-03-29T19:48:13.971Z,8.20
2019-03-29T19:50:44.004Z,8.20
2019-03-29T19:53:14.035Z,8.20
2019-03-29T19:55:44.047Z,8.20
2019-03-29T19:58:15.243Z,8.20
2019-03-29T20:00:46.271Z,8.10
2019-03-29T20:03:16.299Z,8.10
2019-03-29T20:05:46.612Z,8.10
2019-03-29T20:08:16.594Z,8.10
2019-03-29T20:10:46.583Z,8.10
2019-03-29T20:13:16.592Z,8.00
2019-03-29T20:15:46.671Z,8.00
2019-03-29T20:18:16.684Z,7.90
2019-03-29T20:20:46.729Z,7.90
2019-03-29T20:23:16.822Z,7.90
2019-03-29T20:25:46.799Z,7.80
2019-03-29T20:28:16.839Z,7.80
2019-03-29T20:30:47.340Z,7.80
2019-03-29T20:33:17.453Z,7.80
2019-03-29T20:35:47.447Z,7.70
2019-03-29T20:38:17.467Z,7.70
2019-03-29T20:40:47.462Z,7.70
2019-03-29T20:43:17.640Z,7.70
2019-03-29T20:45:47.600Z,7.70
2019-03-29T20:48:17.626Z,7.60
2019-03-29T20:50:47.672Z,7.60
2019-03-29T20:53:17.704Z,7.60
2019-03-29T20:55:47.698Z,7.60
2019-03-29T20:58:17.763Z,7.50
2019-03-29T21:00:47.767Z,7.50
2019-03-29T21:03:17.784Z,7.50
2019-03-29T21:05:47.815Z,7.50
2019-03-29T21:08:17.832Z,7.50
2019-03-29T21:10:55.394Z,7.50
2019-03-29T21:13:19.599Z,7.50
2019-03-29T21:15:49.967Z,7.50
2019-03-29T21:18:20.192Z,7.50
2019-03-29T21:20:50.228Z,7.50
2019-03-29T21:23:20.204Z,7.40
2019-03-29T21:25:50.195Z,7.40
2019-03-29T21:28:20.211Z,7.40
2019-03-29T21:30:50.227Z,7.40
2019-03-29T21:33:20.287Z,7.40
2019-03-29T21:35:50.342Z,7.40
2019-03-29T21:38:20.307Z,7.30
2019-03-29T21:40:50.299Z,7.30
2019-03-29T21:43:20.319Z,7.30
2019-03-29T21:45:50.318Z,7.20
2019-03-29T21:48:28.642Z,7.20
2019-03-29T21:50:52.016Z,7.20
2019-03-29T21:53:22.032Z,7.20
2019-03-29T21:55:52.024Z,7.10
2019-03-29T21:58:23.749Z,7.10
2019-03-29T22:00:53.747Z,7.10
2019-03-29T22:03:23.735Z,7.10
2019-03-29T22:05:53.785Z,7.10
2019-03-29T22:08:23.769Z,7.00
2019-03-29T22:10:53.888Z,7.00
2019-03-29T22:13:23.919Z,7.00
2019-03-29T22:15:53.960Z,7.00
2019-03-29T22:18:36.873Z,7.00
2019-03-29T22:20:55.601Z,7.00
2019-03-29T22:23:25.622Z,6.90
2019-03-29T22:25:55.619Z,6.90
2019-03-29T22:28:25.659Z,6.90
2019-03-29T22:31:00.519Z,6.90
2019-03-29T22:33:31.087Z,6.80
2019-03-29T22:36:01.065Z,6.80
2019-03-29T22:38:31.263Z,6.80
2019-03-29T22:41:01.250Z,6.80
2019-03-29T22:43:31.248Z,6.80
2019-03-29T22:46:01.272Z,6.70
2019-03-29T22:48:31.344Z,6.70
2019-03-29T22:51:01.391Z,6.70
2019-03-29T22:53:31.395Z,6.60
2019-03-29T22:56:01.408Z,6.60
2019-03-29T22:58:31.384Z,6.60
2019-03-29T23:01:03.530Z,6.60
2019-03-29T23:03:33.609Z,6.60
2019-03-29T23:06:03.594Z,6.60
2019-03-29T23:08:33.637Z,6.50
2019-03-29T23:11:03.784Z,6.50
2019-03-29T23:13:33.759Z,6.50
2019-03-29T23:16:03.812Z,6.50
2019-03-29T23:18:33.829Z,6.50
2019-03-29T23:21:03.838Z,6.40
2019-03-29T23:23:33.834Z,6.40
2019-03-29T23:26:03.858Z,6.40
2019-03-29T23:28:33.967Z,6.40
2019-03-29T23:31:05.558Z,6.40
2019-03-29T23:33:35.686Z,6.40
2019-03-29T23:36:05.691Z,6.40
2019-03-29T23:38:35.671Z,6.30
2019-03-29T23:41:05.694Z,6.30
2019-03-29T23:43:35.888Z,6.30
2019-03-29T23:46:06.036Z,6.30
2019-03-29T23:48:36.100Z,6.30
2019-03-29T23:51:06.172Z,6.20
2019-03-29T23:53:36.180Z,6.20
2019-03-29T23:56:06.238Z,6.20
2019-03-29T23:58:36.215Z,6.20
